sensor_id;sensor_type;location;lat;lon;timestamp;pressure;altitude;pressure_sealevel;temperature;humidity
64908;BME280;69061;52.236;5.188;2023-04-21T00:00:48;101590.84;;;11.38;73.72
64908;BME280;69061;52.236;5.188;2023-04-21T00:03:15;101594.66;;;11.37;74.05
64908;BME280;69061;52.236;5.188;2023-04-21T00:05:44;101587.44;;;11.37;73.60
64908;BME280;69061;52.236;5.188;2023-04-21T00:08:10;101584.69;;;11.34;73.72
64908;BME280;69061;52.236;5.188;2023-04-21T00:10:37;101580.06;;;11.31;74.86
64908;BME280;69061;52.236;5.188;2023-04-21T00:13:05;101582.75;;;11.31;74.69
64908;BME280;69061;52.236;5.188;2023-04-21T00:15:31;101575.88;;;11.29;75.04
64908;BME280;69061;52.236;5.188;2023-04-21T00:17:58;101574.34;;;11.28;75.82
64908;BME280;69061;52.236;5.188;2023-04-21T00:20:25;101566.00;;;11.30;76.13
64908;BME280;69061;52.236;5.188;2023-04-21T00:22:52;101569.03;;;11.28;76.65
64908;BME280;69061;52.236;5.188;2023-04-21T00:25:18;101551.91;;;11.29;76.52
64908;BME280;69061;52.236;5.188;2023-04-21T00:27:45;101544.16;;;11.21;77.24
64908;BME280;69061;52.236;5.188;2023-04-21T00:30:13;101547.56;;;11.21;77.67
64908;BME280;69061;52.236;5.188;2023-04-21T00:32:40;101547.94;;;11.20;77.63
64908;BME280;69061;52.236;5.188;2023-04-21T00:35:07;101536.09;;;11.17;78.77
64908;BME280;69061;52.236;5.188;2023-04-21T00:37:33;101535.31;;;11.17;78.78
64908;BME280;69061;52.236;5.188;2023-04-21T00:40:00;101534.53;;;11.16;78.62
64908;BME280;69061;52.236;5.188;2023-04-21T00:42:26;101542.94;;;11.18;78.68
64908;BME280;69061;52.236;5.188;2023-04-21T00:44:53;101544.00;;;11.14;79.23
64908;BME280;69061;52.236;5.188;2023-04-21T00:47:21;101541.69;;;11.12;79.08
64908;BME280;69061;52.236;5.188;2023-04-21T00:49:48;101538.34;;;11.15;80.45
64908;BME280;69061;52.236;5.188;2023-04-21T00:52:16;101530.28;;;11.11;79.93
64908;BME280;69061;52.236;5.188;2023-04-21T00:54:43;101532.22;;;11.15;79.69
64908;BME280;69061;52.236;5.188;2023-04-21T00:57:10;101535.25;;;11.13;79.46
64908;BME280;69061;52.236;5.188;2023-04-21T00:59:39;101538.16;;;11.08;79.89
64908;BME280;69061;52.236;5.188;2023-04-21T01:02:06;101529.78;;;11.06;79.40
64908;BME280;69061;52.236;5.188;2023-04-21T01:04:34;101531.59;;;11.02;79.72
64908;BME280;69061;52.236;5.188;2023-04-21T01:07:04;101526.19;;;10.98;80.54
64908;BME280;69061;52.236;5.188;2023-04-21T01:09:32;101521.22;;;10.97;81.89
64908;BME280;69061;52.236;5.188;2023-04-21T01:12:00;101515.91;;;10.97;81.37
64908;BME280;69061;52.236;5.188;2023-04-21T01:14:27;101517.03;;;10.95;81.39
64908;BME280;69061;52.236;5.188;2023-04-21T01:16:54;101511.28;;;10.93;82.47
64908;BME280;69061;52.236;5.188;2023-04-21T01:19:21;101502.19;;;10.94;83.34
64908;BME280;69061;52.236;5.188;2023-04-21T01:21:50;101502.19;;;10.94;82.70
64908;BME280;69061;52.236;5.188;2023-04-21T01:24:18;101509.47;;;10.98;83.57
64908;BME280;69061;52.236;5.188;2023-04-21T01:26:44;101498.50;;;10.99;83.00
64908;BME280;69061;52.236;5.188;2023-04-21T01:29:13;101489.31;;;10.97;83.62
64908;BME280;69061;52.236;5.188;2023-04-21T01:31:40;101490.41;;;10.95;83.98
64908;BME280;69061;52.236;5.188;2023-04-21T01:34:07;101487.34;;;10.93;83.08
64908;BME280;69061;52.236;5.188;2023-04-21T01:36:35;101494.81;;;10.88;83.19
64908;BME280;69061;52.236;5.188;2023-04-21T01:39:03;101493.28;;;10.87;82.70
64908;BME280;69061;52.236;5.188;2023-04-21T01:41:29;101491.75;;;10.86;83.51
64908;BME280;69061;52.236;5.188;2023-04-21T01:43:56;101493.66;;;10.85;83.17
64908;BME280;69061;52.236;5.188;2023-04-21T01:46:23;101488.34;;;10.85;84.91
64908;BME280;69061;52.236;5.188;2023-04-21T01:48:49;101483.84;;;10.89;84.30
64908;BME280;69061;52.236;5.188;2023-04-21T01:51:16;101489.19;;;10.89;84.38
64908;BME280;69061;52.236;5.188;2023-04-21T01:53:42;101481.53;;;10.88;84.76
64908;BME280;69061;52.236;5.188;2023-04-21T01:56:13;101479.22;;;10.86;84.57
64908;BME280;69061;52.236;5.188;2023-04-21T01:58:40;101472.78;;;10.87;84.90
64908;BME280;69061;52.236;5.188;2023-04-21T02:01:06;101459.47;;;10.87;84.12
64908;BME280;69061;52.236;5.188;2023-04-21T02:03:33;101462.84;;;10.84;83.86
64908;BME280;69061;52.236;5.188;2023-04-21T02:06:00;101464.72;;;10.84;84.74
64908;BME280;69061;52.236;5.188;2023-04-21T02:08:26;101460.94;;;10.85;85.36
64908;BME280;69061;52.236;5.188;2023-04-21T02:10:53;101459.84;;;10.86;85.38
64908;BME280;69061;52.236;5.188;2023-04-21T02:13:20;101457.94;;;10.86;84.81
64908;BME280;69061;52.236;5.188;2023-04-21T02:15:47;101466.97;;;10.82;84.54
64908;BME280;69061;52.236;5.188;2023-04-21T02:18:13;101469.28;;;10.83;84.92
64908;BME280;69061;52.236;5.188;2023-04-21T02:20:40;101474.59;;;10.83;86.02
64908;BME280;69061;52.236;5.188;2023-04-21T02:23:07;101462.06;;;10.84;85.65
64908;BME280;69061;52.236;5.188;2023-04-21T02:25:33;101464.31;;;10.82;85.39
64908;BME280;69061;52.236;5.188;2023-04-21T02:28:00;101463.13;;;10.79;85.98
64908;BME280;69061;52.236;5.188;2023-04-21T02:30:28;101464.66;;;10.80;86.16
64908;BME280;69061;52.236;5.188;2023-04-21T02:32:55;101465.44;;;10.81;87.12
64908;BME280;69061;52.236;5.188;2023-04-21T02:35:21;101465.50;;;10.84;86.73
64908;BME280;69061;52.236;5.188;2023-04-21T02:37:48;101459.06;;;10.85;87.27
64908;BME280;69061;52.236;5.188;2023-04-21T02:40:14;101463.25;;;10.86;86.97
64908;BME280;69061;52.236;5.188;2023-04-21T02:42:41;101461.88;;;10.92;87.66
64908;BME280;69061;52.236;5.188;2023-04-21T02:45:09;101459.97;;;10.93;87.59
64908;BME280;69061;52.236;5.188;2023-04-21T02:47:37;101457.75;;;10.95;87.91
64908;BME280;69061;52.236;5.188;2023-04-21T02:50:04;101455.16;;;10.99;86.83
64908;BME280;69061;52.236;5.188;2023-04-21T02:52:34;101452.84;;;10.97;87.26
64908;BME280;69061;52.236;5.188;2023-04-21T02:55:01;101460.81;;;10.97;86.71
64908;BME280;69061;52.236;5.188;2023-04-21T02:57:28;101458.16;;;10.97;86.10
64908;BME280;69061;52.236;5.188;2023-04-21T02:59:55;101451.31;;;10.96;86.11
64908;BME280;69061;52.236;5.188;2023-04-21T03:02:21;101463.00;;;10.91;86.89
64908;BME280;69061;52.236;5.188;2023-04-21T03:04:49;101459.22;;;10.92;87.13
64908;BME280;69061;52.236;5.188;2023-04-21T03:07:16;101455.44;;;10.93;87.37
64908;BME280;69061;52.236;5.188;2023-04-21T03:09:42;101451.25;;;10.92;86.62
64908;BME280;69061;52.236;5.188;2023-04-21T03:12:09;101443.25;;;10.92;87.65
64908;BME280;69061;52.236;5.188;2023-04-21T03:14:35;101448.97;;;10.94;87.13
64908;BME280;69061;52.236;5.188;2023-04-21T03:17:02;101453.53;;;10.94;87.29
64908;BME280;69061;52.236;5.188;2023-04-21T03:19:31;101454.31;;;10.94;87.08
64908;BME280;69061;52.236;5.188;2023-04-21T03:21:59;101452.06;;;10.97;86.53
64908;BME280;69061;52.236;5.188;2023-04-21T03:24:26;101455.09;;;10.95;85.74
64908;BME280;69061;52.236;5.188;2023-04-21T03:26:53;101453.53;;;10.94;86.09
64908;BME280;69061;52.236;5.188;2023-04-21T03:29:21;101450.47;;;10.92;86.24
64908;BME280;69061;52.236;5.188;2023-04-21T03:31:47;101449.59;;;10.88;86.31
64908;BME280;69061;52.236;5.188;2023-04-21T03:34:14;101442.81;;;10.90;85.99
64908;BME280;69061;52.236;5.188;2023-04-21T03:36:40;101432.97;;;10.91;87.00
64908;BME280;69061;52.236;5.188;2023-04-21T03:39:08;101414.34;;;10.91;87.25
64908;BME280;69061;52.236;5.188;2023-04-21T03:41:35;101426.19;;;10.93;87.64
64908;BME280;69061;52.236;5.188;2023-04-21T03:44:01;101439.50;;;10.93;86.84
64908;BME280;69061;52.236;5.188;2023-04-21T03:46:28;101433.03;;;10.94;87.69
64908;BME280;69061;52.236;5.188;2023-04-21T03:48:54;101419.69;;;10.91;86.91
64908;BME280;69061;52.236;5.188;2023-04-21T03:51:21;101433.72;;;10.91;86.59
64908;BME280;69061;52.236;5.188;2023-04-21T03:53:47;101414.72;;;10.89;87.20
64908;BME280;69061;52.236;5.188;2023-04-21T03:56:15;101428.34;;;10.88;86.50
64908;BME280;69061;52.236;5.188;2023-04-21T03:58:42;101429.81;;;10.85;87.05
64908;BME280;69061;52.236;5.188;2023-04-21T04:01:08;101422.25;;;10.87;87.03
64908;BME280;69061;52.236;5.188;2023-04-21T04:03:35;101426.03;;;10.86;86.97
64908;BME280;69061;52.236;5.188;2023-04-21T04:06:01;101413.09;;;10.85;87.87
64908;BME280;69061;52.236;5.188;2023-04-21T04:08:31;101408.56;;;10.85;88.21
64908;BME280;69061;52.236;5.188;2023-04-21T04:10:57;101408.56;;;10.85;87.77
64908;BME280;69061;52.236;5.188;2023-04-21T04:13:25;101409.31;;;10.86;87.60
64908;BME280;69061;52.236;5.188;2023-04-21T04:15:53;101403.16;;;10.82;87.65
64908;BME280;69061;52.236;5.188;2023-04-21T04:18:20;101404.28;;;10.81;87.84
64908;BME280;69061;52.236;5.188;2023-04-21T04:20:46;101407.72;;;10.81;87.49
64908;BME280;69061;52.236;5.188;2023-04-21T04:23:13;101400.84;;;10.80;87.94
64908;BME280;69061;52.236;5.188;2023-04-21T04:25:39;101398.56;;;10.78;87.73
64908;BME280;69061;52.236;5.188;2023-04-21T04:28:06;101392.53;;;10.82;87.72
64908;BME280;69061;52.236;5.188;2023-04-21T04:30:34;101375.03;;;10.81;88.40
64908;BME280;69061;52.236;5.188;2023-04-21T04:33:01;101389.50;;;10.83;88.41
64908;BME280;69061;52.236;5.188;2023-04-21T04:35:27;101395.66;;;10.87;87.16
64908;BME280;69061;52.236;5.188;2023-04-21T04:37:54;101407.41;;;10.86;87.13
64908;BME280;69061;52.236;5.188;2023-04-21T04:40:21;101402.88;;;10.87;87.06
64908;BME280;69061;52.236;5.188;2023-04-21T04:42:47;101401.34;;;10.86;87.48
64908;BME280;69061;52.236;5.188;2023-04-21T04:45:15;101408.19;;;10.87;87.94
64908;BME280;69061;52.236;5.188;2023-04-21T04:47:47;101396.84;;;10.90;88.52
64908;BME280;69061;52.236;5.188;2023-04-21T04:50:13;101409.44;;;10.93;88.13
64908;BME280;69061;52.236;5.188;2023-04-21T04:52:40;101403.72;;;10.91;88.19
64908;BME280;69061;52.236;5.188;2023-04-21T04:55:09;101404.59;;;10.99;87.92
64908;BME280;69061;52.236;5.188;2023-04-21T04:57:35;101403.50;;;11.00;87.93
64908;BME280;69061;52.236;5.188;2023-04-21T05:00:02;101400.84;;;11.00;87.21
64908;BME280;69061;52.236;5.188;2023-04-21T05:02:31;101401.94;;;10.99;87.21
64908;BME280;69061;52.236;5.188;2023-04-21T05:04:59;101404.97;;;10.97;87.46
64908;BME280;69061;52.236;5.188;2023-04-21T05:07:25;101412.94;;;10.97;87.88
64908;BME280;69061;52.236;5.188;2023-04-21T05:09:52;101404.97;;;10.97;87.53
64908;BME280;69061;52.236;5.188;2023-04-21T05:12:18;101396.94;;;10.93;87.90
64908;BME280;69061;52.236;5.188;2023-04-21T05:14:45;101403.78;;;10.94;87.81
64908;BME280;69061;52.236;5.188;2023-04-21T05:17:11;101403.72;;;10.91;87.62
64908;BME280;69061;52.236;5.188;2023-04-21T05:19:38;101398.81;;;10.93;88.03
64908;BME280;69061;52.236;5.188;2023-04-21T05:22:05;101406.88;;;10.97;87.53
64908;BME280;69061;52.236;5.188;2023-04-21T05:24:32;101415.19;;;10.95;87.16
64908;BME280;69061;52.236;5.188;2023-04-21T05:26:59;101411.69;;;10.91;87.70
64908;BME280;69061;52.236;5.188;2023-04-21T05:29:27;101422.34;;;10.91;87.53
64908;BME280;69061;52.236;5.188;2023-04-21T05:31:53;101423.09;;;10.91;88.21
64908;BME280;69061;52.236;5.188;2023-04-21T05:34:20;101427.31;;;10.92;88.45
64908;BME280;69061;52.236;5.188;2023-04-21T05:36:47;101430.72;;;10.93;89.17
64908;BME280;69061;52.236;5.188;2023-04-21T05:39:14;101436.88;;;10.97;89.02
64908;BME280;69061;52.236;5.188;2023-04-21T05:41:42;101414.13;;;11.00;89.58
64908;BME280;69061;52.236;5.188;2023-04-21T05:44:08;101414.22;;;11.03;89.26
64908;BME280;69061;52.236;5.188;2023-04-21T05:46:35;101415.81;;;11.08;89.51
64908;BME280;69061;52.236;5.188;2023-04-21T05:49:01;101432.28;;;11.14;89.64
64908;BME280;69061;52.236;5.188;2023-04-21T05:51:28;101433.13;;;11.18;89.05
64908;BME280;69061;52.236;5.188;2023-04-21T05:53:56;101434.72;;;11.22;88.82
64908;BME280;69061;52.236;5.188;2023-04-21T05:56:24;101442.34;;;11.24;89.26
64908;BME280;69061;52.236;5.188;2023-04-21T05:58:51;101438.19;;;11.26;88.80
64908;BME280;69061;52.236;5.188;2023-04-21T06:01:17;101440.16;;;11.29;88.68
64908;BME280;69061;52.236;5.188;2023-04-21T06:03:44;101435.66;;;11.34;88.58
64908;BME280;69061;52.236;5.188;2023-04-21T06:06:13;101434.56;;;11.35;88.08
64908;BME280;69061;52.236;5.188;2023-04-21T06:08:39;101435.34;;;11.35;88.08
64908;BME280;69061;52.236;5.188;2023-04-21T06:11:06;101441.41;;;11.36;87.90
64908;BME280;69061;52.236;5.188;2023-04-21T06:13:34;101434.56;;;11.35;87.64
64908;BME280;69061;52.236;5.188;2023-04-21T06:16:00;101426.56;;;11.35;87.89
64908;BME280;69061;52.236;5.188;2023-04-21T06:18:27;101428.81;;;11.33;87.39
64908;BME280;69061;52.236;5.188;2023-04-21T06:20:54;101433.38;;;11.32;87.74
64908;BME280;69061;52.236;5.188;2023-04-21T06:23:21;101426.44;;;11.27;87.90
64908;BME280;69061;52.236;5.188;2023-04-21T06:25:58;101422.25;;;11.26;88.48
64908;BME280;69061;52.236;5.188;2023-04-21T06:28:24;101430.69;;;11.32;87.91
64908;BME280;69061;52.236;5.188;2023-04-21T06:30:52;101420.00;;;11.28;87.97
64908;BME280;69061;52.236;5.188;2023-04-21T06:33:19;101428.41;;;11.31;88.78
64908;BME280;69061;52.236;5.188;2023-04-21T06:35:45;101426.84;;;11.29;88.67
64908;BME280;69061;52.236;5.188;2023-04-21T06:38:12;101422.72;;;11.32;88.55
64908;BME280;69061;52.236;5.188;2023-04-21T06:40:38;101430.28;;;11.30;88.83
64908;BME280;69061;52.236;5.188;2023-04-21T06:43:05;101431.88;;;11.35;89.04
64908;BME280;69061;52.236;5.188;2023-04-21T06:45:31;101433.16;;;11.41;89.20
64908;BME280;69061;52.236;5.188;2023-04-21T06:47:59;101425.28;;;11.48;88.75
64908;BME280;69061;52.236;5.188;2023-04-21T06:50:26;101427.22;;;11.51;88.23
64908;BME280;69061;52.236;5.188;2023-04-21T06:52:52;101439.84;;;11.54;88.63
64908;BME280;69061;52.236;5.188;2023-04-21T06:55:19;101429.31;;;11.61;88.09
64908;BME280;69061;52.236;5.188;2023-04-21T06:57:45;101431.63;;;11.63;87.70
64908;BME280;69061;52.236;5.188;2023-04-21T07:00:13;101425.09;;;11.60;88.03
64908;BME280;69061;52.236;5.188;2023-04-21T07:02:39;101424.38;;;11.63;87.71
64908;BME280;69061;52.236;5.188;2023-04-21T07:05:08;101426.72;;;11.65;88.09
64908;BME280;69061;52.236;5.188;2023-04-21T07:07:35;101423.41;;;11.72;87.73
64908;BME280;69061;52.236;5.188;2023-04-21T07:10:02;101404.13;;;11.78;87.56
64908;BME280;69061;52.236;5.188;2023-04-21T07:12:28;101398.78;;;11.78;87.74
64908;BME280;69061;52.236;5.188;2023-04-21T07:14:55;101413.44;;;11.92;87.11
64908;BME280;69061;52.236;5.188;2023-04-21T07:17:21;101409.31;;;11.94;86.77
64908;BME280;69061;52.236;5.188;2023-04-21T07:19:48;101417.00;;;12.00;86.78
64908;BME280;69061;52.236;5.188;2023-04-21T07:22:16;101420.50;;;12.04;86.52
64908;BME280;69061;52.236;5.188;2023-04-21T07:24:42;101412.88;;;12.02;87.26
64908;BME280;69061;52.236;5.188;2023-04-21T07:27:09;101414.44;;;12.07;86.88
64908;BME280;69061;52.236;5.188;2023-04-21T07:29:36;101414.97;;;12.16;87.44
64908;BME280;69061;52.236;5.188;2023-04-21T07:32:02;101414.16;;;12.39;87.34
64908;BME280;69061;52.236;5.188;2023-04-21T07:34:29;101413.63;;;12.56;87.09
64908;BME280;69061;52.236;5.188;2023-04-21T07:36:55;101417.16;;;12.68;86.03
64908;BME280;69061;52.236;5.188;2023-04-21T07:39:23;101427.91;;;12.71;85.22
64908;BME280;69061;52.236;5.188;2023-04-21T07:41:50;101424.84;;;12.69;84.72
64908;BME280;69061;52.236;5.188;2023-04-21T07:44:18;101438.03;;;12.58;84.33
64908;BME280;69061;52.236;5.188;2023-04-21T07:46:44;101427.63;;;12.50;84.07
64908;BME280;69061;52.236;5.188;2023-04-21T07:49:11;101426.81;;;12.45;84.20
64908;BME280;69061;52.236;5.188;2023-04-21T07:51:37;101424.81;;;12.39;84.65
64908;BME280;69061;52.236;5.188;2023-04-21T07:54:04;101423.25;;;12.38;85.13
64908;BME280;69061;52.236;5.188;2023-04-21T07:56:32;101427.84;;;12.37;85.30
64908;BME280;69061;52.236;5.188;2023-04-21T07:58:58;101423.75;;;12.43;84.69
64908;BME280;69061;52.236;5.188;2023-04-21T08:01:25;101421.09;;;12.47;84.54
64908;BME280;69061;52.236;5.188;2023-04-21T08:03:51;101422.72;;;12.52;84.04
64908;BME280;69061;52.236;5.188;2023-04-21T08:06:18;101417.47;;;12.59;84.42
64908;BME280;69061;52.236;5.188;2023-04-21T08:08:44;101418.34;;;12.70;84.18
64908;BME280;69061;52.236;5.188;2023-04-21T08:11:11;101420.38;;;12.80;84.13
64908;BME280;69061;52.236;5.188;2023-04-21T08:13:39;101418.66;;;12.95;82.66
64908;BME280;69061;52.236;5.188;2023-04-21T08:16:06;101418.66;;;12.95;82.08
64908;BME280;69061;52.236;5.188;2023-04-21T08:18:32;101417.66;;;13.07;82.06
64908;BME280;69061;52.236;5.188;2023-04-21T08:20:59;101400.53;;;13.12;81.74
64908;BME280;69061;52.236;5.188;2023-04-21T08:23:26;101412.09;;;13.23;81.45
64908;BME280;69061;52.236;5.188;2023-04-21T08:25:54;101409.44;;;13.23;81.18
64908;BME280;69061;52.236;5.188;2023-04-21T08:28:21;101409.81;;;13.25;80.38
64908;BME280;69061;52.236;5.188;2023-04-21T08:30:49;101422.78;;;13.27;79.80
64908;BME280;69061;52.236;5.188;2023-04-21T08:33:15;101426.25;;;13.27;80.08
64908;BME280;69061;52.236;5.188;2023-04-21T08:35:42;101421.78;;;13.39;80.09
64908;BME280;69061;52.236;5.188;2023-04-21T08:38:09;101428.25;;;13.38;78.31
64908;BME280;69061;52.236;5.188;2023-04-21T08:40:36;101432.00;;;13.33;78.29
64908;BME280;69061;52.236;5.188;2023-04-21T08:43:04;101430.53;;;13.36;78.60
64908;BME280;69061;52.236;5.188;2023-04-21T08:45:32;101430.09;;;13.34;78.20
64908;BME280;69061;52.236;5.188;2023-04-21T08:48:01;101424.69;;;13.26;77.96
64908;BME280;69061;52.236;5.188;2023-04-21T08:50:31;101426.53;;;13.19;79.30
64908;BME280;69061;52.236;5.188;2023-04-21T08:52:58;101431.16;;;13.25;79.75
64908;BME280;69061;52.236;5.188;2023-04-21T08:55:27;101432.16;;;13.10;79.56
64908;BME280;69061;52.236;5.188;2023-04-21T08:57:54;101434.13;;;13.17;79.18
64908;BME280;69061;52.236;5.188;2023-04-21T09:00:21;101432.66;;;13.19;80.08
64908;BME280;69061;52.236;5.188;2023-04-21T09:02:55;101427.44;;;13.34;80.35
64908;BME280;69061;52.236;5.188;2023-04-21T09:05:25;101429.22;;;13.56;80.08
64908;BME280;69061;52.236;5.188;2023-04-21T09:07:53;101426.34;;;13.79;79.63
64908;BME280;69061;52.236;5.188;2023-04-21T09:10:23;101424.09;;;13.85;77.84
64908;BME280;69061;52.236;5.188;2023-04-21T09:12:51;101426.84;;;13.92;77.95
64908;BME280;69061;52.236;5.188;2023-04-21T09:15:20;101411.19;;;13.94;76.72
64908;BME280;69061;52.236;5.188;2023-04-21T09:17:53;101414.25;;;13.96;76.32
64908;BME280;69061;52.236;5.188;2023-04-21T09:20:21;101424.94;;;13.96;77.33
64908;BME280;69061;52.236;5.188;2023-04-21T09:22:50;101421.22;;;14.12;78.02
64908;BME280;69061;52.236;5.188;2023-04-21T09:25:18;101424.00;;;14.26;77.31
64908;BME280;69061;52.236;5.188;2023-04-21T09:27:45;101418.66;;;14.26;76.88
64908;BME280;69061;52.236;5.188;2023-04-21T09:30:12;101414.47;;;14.32;77.15
64908;BME280;69061;52.236;5.188;2023-04-21T09:32:39;101412.22;;;14.42;77.10
64908;BME280;69061;52.236;5.188;2023-04-21T09:35:08;101420.69;;;14.51;77.39
64908;BME280;69061;52.236;5.188;2023-04-21T09:37:36;101412.31;;;14.60;76.47
64908;BME280;69061;52.236;5.188;2023-04-21T09:40:05;101415.44;;;14.69;76.04
64908;BME280;69061;52.236;5.188;2023-04-21T09:42:32;101411.66;;;14.74;75.47
64908;BME280;69061;52.236;5.188;2023-04-21T09:45:00;101413.19;;;14.75;75.09
64908;BME280;69061;52.236;5.188;2023-04-21T09:47:28;101417.34;;;14.69;73.92
64908;BME280;69061;52.236;5.188;2023-04-21T09:49:55;101406.25;;;14.67;74.87
64908;BME280;69061;52.236;5.188;2023-04-21T09:52:23;101403.94;;;14.65;74.96
64908;BME280;69061;52.236;5.188;2023-04-21T09:54:57;101410.47;;;14.68;74.01
64908;BME280;69061;52.236;5.188;2023-04-21T09:57:29;101406.97;;;14.56;72.54
64908;BME280;69061;52.236;5.188;2023-04-21T10:00:00;101398.41;;;14.25;73.85
64908;BME280;69061;52.236;5.188;2023-04-21T10:02:30;101393.75;;;14.15;75.00
64908;BME280;69061;52.236;5.188;2023-04-21T10:04:57;101400.66;;;14.23;75.61
64908;BME280;69061;52.236;5.188;2023-04-21T10:07:23;101393.09;;;14.36;75.48
64908;BME280;69061;52.236;5.188;2023-04-21T10:09:51;101398.53;;;14.51;74.72
64908;BME280;69061;52.236;5.188;2023-04-21T10:12:19;101391.69;;;14.60;74.38
64908;BME280;69061;52.236;5.188;2023-04-21T10:14:49;101400.13;;;14.66;74.10
64908;BME280;69061;52.236;5.188;2023-04-21T10:17:16;101397.88;;;14.68;74.00
64908;BME280;69061;52.236;5.188;2023-04-21T10:19:50;101404.72;;;14.65;74.26
64908;BME280;69061;52.236;5.188;2023-04-21T10:22:25;101397.84;;;14.64;74.15
64908;BME280;69061;52.236;5.188;2023-04-21T10:24:54;101395.59;;;14.77;74.81
64908;BME280;69061;52.236;5.188;2023-04-21T10:27:30;101400.63;;;15.01;75.12
64908;BME280;69061;52.236;5.188;2023-04-21T10:29:59;101399.53;;;15.20;74.44
64908;BME280;69061;52.236;5.188;2023-04-21T10:32:43;101396.44;;;15.14;73.16
64908;BME280;69061;52.236;5.188;2023-04-21T10:35:11;101398.34;;;15.10;73.34
64908;BME280;69061;52.236;5.188;2023-04-21T10:37:39;101388.78;;;15.05;73.32
64908;BME280;69061;52.236;5.188;2023-04-21T10:40:33;101383.81;;;15.04;73.42
64908;BME280;69061;52.236;5.188;2023-04-21T10:43:01;101386.88;;;15.06;73.33
64908;BME280;69061;52.236;5.188;2023-04-21T10:45:30;101377.31;;;15.05;73.01
64908;BME280;69061;52.236;5.188;2023-04-21T10:47:59;101377.69;;;15.07;72.83
64908;BME280;69061;52.236;5.188;2023-04-21T10:50:29;101383.84;;;15.07;72.64
64908;BME280;69061;52.236;5.188;2023-04-21T10:52:58;101377.31;;;15.12;72.66
64908;BME280;69061;52.236;5.188;2023-04-21T10:55:31;101374.28;;;15.17;72.03
64908;BME280;69061;52.236;5.188;2023-04-21T10:58:01;101371.97;;;15.15;71.92
64908;BME280;69061;52.236;5.188;2023-04-21T11:00:29;101369.69;;;15.18;72.23
64908;BME280;69061;52.236;5.188;2023-04-21T11:02:58;101374.25;;;15.21;72.04
64908;BME280;69061;52.236;5.188;2023-04-21T11:05:33;101363.59;;;15.28;71.50
64908;BME280;69061;52.236;5.188;2023-04-21T11:08:05;101353.25;;;15.37;72.56
64908;BME280;69061;52.236;5.188;2023-04-21T11:10:41;101354.41;;;15.47;71.93
64908;BME280;69061;52.236;5.188;2023-04-21T11:13:07;101359.75;;;15.51;71.39
64908;BME280;69061;52.236;5.188;2023-04-21T11:15:36;101368.91;;;15.53;70.70
64908;BME280;69061;52.236;5.188;2023-04-21T11:18:04;101357.09;;;15.51;70.43
64908;BME280;69061;52.236;5.188;2023-04-21T11:20:32;101349.81;;;15.51;70.28
64908;BME280;69061;52.236;5.188;2023-04-21T11:22:59;101341.75;;;15.58;70.16
64908;BME280;69061;52.236;5.188;2023-04-21T11:25:25;101340.59;;;15.66;69.99
64908;BME280;69061;52.236;5.188;2023-04-21T11:27:52;101332.94;;;15.69;68.47
64908;BME280;69061;52.236;5.188;2023-04-21T11:30:20;101331.41;;;15.53;68.75
64908;BME280;69061;52.236;5.188;2023-04-21T11:32:53;101333.34;;;15.56;68.69
64908;BME280;69061;52.236;5.188;2023-04-21T11:35:20;101339.09;;;15.44;69.30
64908;BME280;69061;52.236;5.188;2023-04-21T11:37:49;101338.72;;;15.42;68.91
64908;BME280;69061;52.236;5.188;2023-04-21T11:40:16;101327.63;;;15.40;69.26
64908;BME280;69061;52.236;5.188;2023-04-21T11:42:43;101331.06;;;15.37;69.28
64908;BME280;69061;52.236;5.188;2023-04-21T11:45:15;101330.66;;;15.27;69.60
64908;BME280;69061;52.236;5.188;2023-04-21T11:47:42;101324.16;;;15.25;69.79
64908;BME280;69061;52.236;5.188;2023-04-21T11:50:10;101327.63;;;15.29;70.54
64908;BME280;69061;52.236;5.188;2023-04-21T11:52:37;101314.97;;;15.37;70.59
64908;BME280;69061;52.236;5.188;2023-04-21T11:55:10;101315.75;;;15.48;70.58
64908;BME280;69061;52.236;5.188;2023-04-21T11:57:39;101315.72;;;15.70;70.06
64908;BME280;69061;52.236;5.188;2023-04-21T12:00:08;101310.34;;;15.84;69.25
64908;BME280;69061;52.236;5.188;2023-04-21T12:02:36;101306.53;;;15.89;67.81
64908;BME280;69061;52.236;5.188;2023-04-21T12:05:04;101300.34;;;16.06;68.36
64908;BME280;69061;52.236;5.188;2023-04-21T12:07:34;101297.53;;;16.31;67.63
64908;BME280;69061;52.236;5.188;2023-04-21T12:10:01;101295.94;;;16.48;65.30
64908;BME280;69061;52.236;5.188;2023-04-21T12:12:36;101292.50;;;16.44;65.18
64908;BME280;69061;52.236;5.188;2023-04-21T12:15:03;101289.84;;;16.41;65.14
64908;BME280;69061;52.236;5.188;2023-04-21T12:17:35;101281.72;;;16.55;65.12
64908;BME280;69061;52.236;5.188;2023-04-21T12:20:03;101269.28;;;16.79;65.01
64908;BME280;69061;52.236;5.188;2023-04-21T12:22:31;101276.00;;;17.06;65.05
64908;BME280;69061;52.236;5.188;2023-04-21T12:24:58;101272.38;;;17.27;64.00
64908;BME280;69061;52.236;5.188;2023-04-21T12:27:25;101274.59;;;17.36;63.13
64908;BME280;69061;52.236;5.188;2023-04-21T12:29:52;101277.28;;;17.36;62.83
64908;BME280;69061;52.236;5.188;2023-04-21T12:32:20;101275.38;;;17.36;62.40
64908;BME280;69061;52.236;5.188;2023-04-21T12:34:46;101268.59;;;17.21;62.20
64908;BME280;69061;52.236;5.188;2023-04-21T12:37:13;101271.38;;;17.10;62.43
64908;BME280;69061;52.236;5.188;2023-04-21T12:39:41;101269.88;;;17.05;63.42
64908;BME280;69061;52.236;5.188;2023-04-21T12:42:07;101259.81;;;17.16;63.74
64908;BME280;69061;52.236;5.188;2023-04-21T12:44:34;101258.56;;;17.28;63.49
64908;BME280;69061;52.236;5.188;2023-04-21T12:47:01;101252.34;;;17.35;62.33
64908;BME280;69061;52.236;5.188;2023-04-21T12:49:27;101251.94;;;17.37;62.00
64908;BME280;69061;52.236;5.188;2023-04-21T12:51:54;101229.94;;;17.49;62.25